This is the latest recevied weather packets stored in our database for station/object W4CKA. If no packets are shown the sender has not sent any weather packets the latest 10 day(s).
| Time | Temp. | Humidity | Pressure | Rain* | Wind** | Luminosity | Snow |
|---|---|---|---|---|---|---|---|
| 1788013579 | 24.44° C | 82% | 1063.7 hPa | 0 mm | - | 437 W/m² | - |
| 1788012979 | 25° C | 82% | 1063.9 hPa | 0 mm | - | 409 W/m² | - |
| 1788012375 | 23.89° C | 84% | 1063.7 hPa | 0 mm | - | 372 W/m² | - |
| 1788011774 | 23.89° C | 84% | 1063.7 hPa | 0 mm | - | 323 W/m² | - |
| 1788011169 | 23.33° C | 85% | 1063.9 hPa | 0 mm | - | 305 W/m² | - |
| 1788010568 | 22.78° C | 89% | 1063.7 hPa | 0 mm | - | 322 W/m² | - |
| 1788009969 | 22.78° C | 89% | 1063.6 hPa | 0 mm | - | 236 W/m² | - |
| 1788009367 | 22.78° C | 86% | 1063.7 hPa | 0 mm | - | 270 W/m² | - |
| 1788008762 | 22.22° C | 87% | 1063.7 hPa | 0 mm | - | 138 W/m² | - |
| 1788008159 | 21.67° C | 90% | 1063.7 hPa | 0 mm | - | 120 W/m² | - |
| 1788007557 | 20.56° C | 93% | 1063.7 hPa | 0 mm | - | 150 W/m² | - |
| 1788006956 | 19.44° C | 97% | 1063.7 hPa | 0 mm | - | 98 W/m² | - |
| 1788006351 | 18.33° C | 99% | 1063.9 hPa | 0 mm | - | 43 W/m² | - |
| 1788005750 | 18.33° C | 99% | 1063.7 hPa | 0 mm | - | 39 W/m² | - |
| 1788005149 | 17.78° C | 99% | 1063.7 hPa | 0 mm | - | 35 W/m² | - |
| 1788004549 | 17.78° C | 99% | 1063.7 hPa | 0 mm | - | 31 W/m² | - |
| 1788003949 | 17.22° C | 99% | 1063.4 hPa | 0 mm | - | 24 W/m² | - |
| 1788003349 | 17.22° C | 99% | 1063.4 hPa | 0 mm | - | 20 W/m² | - |
| 1788002749 | 17.78° C | 99% | 1063.1 hPa | 0 mm | - | 11 W/m² | - |
| 1788002146 | 17.78° C | 99% | 1063.1 hPa | 0 mm | - | 6 W/m² | - |
| 1788001542 | 17.78° C | 99% | 1063 hPa | 0 mm | - | 0 W/m² | - |
| 1788000937 | 17.78° C | 99% | 1063 hPa | 0 mm | - | 0 W/m² | - |
| 1788000332 | 17.78° C | 99% | 1062.8 hPa | 0 mm | - | 0 W/m² | - |
| 1787999729 | 17.78° C | 99% | 1062.8 hPa | 0 mm | - | 0 W/m² | - |
| 1787999125 | 17.78° C | 99% | 1062.5 hPa | 0 mm | - | 0 W/m² | - |
* Rain latest hour (hover to see other rain measurements)
** Current wind speed in m/s (hover to see current wind gust speed)